createdAt,value
2023-09-01T00:01:17.892Z,15.50
2023-09-01T00:03:44.846Z,15.40
2023-09-01T00:06:12.239Z,15.40
2023-09-01T00:08:38.998Z,15.50
2023-09-01T00:11:05.802Z,15.50
2023-09-01T00:13:32.576Z,15.40
2023-09-01T00:16:02.248Z,15.40
2023-09-01T00:18:31.228Z,15.30
2023-09-01T00:20:58.672Z,15.40
2023-09-01T00:23:25.830Z,15.40
2023-09-01T00:25:53.334Z,15.40
2023-09-01T00:28:20.031Z,15.50
2023-09-01T00:31:00.177Z,15.50
2023-09-01T00:33:31.003Z,15.50
2023-09-01T00:35:58.317Z,15.50
2023-09-01T00:38:28.017Z,15.50
2023-09-01T00:40:54.860Z,15.60
2023-09-01T00:43:21.724Z,15.60
2023-09-01T00:45:48.749Z,15.60
2023-09-01T00:48:15.564Z,15.50
2023-09-01T00:50:42.804Z,15.50
2023-09-01T00:53:09.902Z,15.60
2023-09-01T00:55:37.012Z,15.60
2023-09-01T00:58:03.876Z,15.60
2023-09-01T01:00:33.752Z,15.60
2023-09-01T01:03:02.158Z,16.20
2023-09-01T01:05:32.829Z,15.60
2023-09-01T01:07:59.935Z,15.60
2023-09-01T01:10:36.000Z,15.60
2023-09-01T01:13:12.366Z,15.50
2023-09-01T01:15:39.381Z,15.50
2023-09-01T01:18:09.768Z,15.50
2023-09-01T01:20:38.301Z,15.50
2023-09-01T01:23:08.080Z,15.50
2023-09-01T01:25:34.779Z,15.50
2023-09-01T01:28:07.082Z,15.50
2023-09-01T01:30:33.989Z,15.50
2023-09-01T01:33:00.831Z,15.50
2023-09-01T01:35:39.003Z,15.50
2023-09-01T01:38:14.744Z,15.50
2023-09-01T01:40:43.153Z,15.50
2023-09-01T01:43:11.419Z,15.50
2023-09-01T01:45:39.895Z,15.50
2023-09-01T01:48:06.804Z,15.50
2023-09-01T01:50:33.869Z,15.50
2023-09-01T01:53:00.878Z,15.40
2023-09-01T01:55:27.622Z,15.40
2023-09-01T01:57:54.296Z,15.40
2023-09-01T02:00:21.015Z,15.30
2023-09-01T02:02:47.807Z,15.30
2023-09-01T02:05:14.617Z,15.40
2023-09-01T02:07:41.509Z,15.40
2023-09-01T02:10:08.427Z,15.50
2023-09-01T02:12:35.160Z,15.50
2023-09-01T02:15:02.152Z,15.50
2023-09-01T02:17:28.906Z,15.50
2023-09-01T02:19:56.674Z,15.50
2023-09-01T02:22:23.792Z,15.50
2023-09-01T02:24:50.459Z,16.10
2023-09-01T02:27:17.160Z,15.50
2023-09-01T02:29:43.905Z,15.60
2023-09-01T02:32:10.640Z,15.50
2023-09-01T02:34:37.332Z,15.50
2023-09-01T02:37:04.113Z,15.60
2023-09-01T02:39:31.020Z,15.60
2023-09-01T02:42:00.072Z,15.60
2023-09-01T02:44:26.725Z,15.50
2023-09-01T02:46:53.453Z,15.60
2023-09-01T02:49:20.105Z,15.60
2023-09-01T02:51:46.842Z,15.50
2023-09-01T02:54:13.551Z,15.60
2023-09-01T02:56:40.341Z,15.60
2023-09-01T02:59:07.083Z,15.60
2023-09-01T03:01:33.818Z,15.60
2023-09-01T03:04:00.520Z,15.60
2023-09-01T03:06:27.253Z,15.60
2023-09-01T03:08:53.903Z,15.60
2023-09-01T03:11:20.614Z,15.60
2023-09-01T03:13:47.370Z,15.60
2023-09-01T03:16:14.100Z,15.60
2023-09-01T03:18:40.862Z,15.60
2023-09-01T03:21:11.704Z,15.70
2023-09-01T03:23:38.730Z,15.60
2023-09-01T03:26:06.821Z,15.60
2023-09-01T03:28:34.029Z,15.50
2023-09-01T03:31:00.705Z,15.60
2023-09-01T03:33:28.544Z,15.50
2023-09-01T03:35:55.304Z,15.50
2023-09-01T03:38:22.028Z,15.50
2023-09-01T03:40:48.768Z,15.60
2023-09-01T03:43:15.751Z,15.60
2023-09-01T03:45:44.117Z,15.60
2023-09-01T03:48:11.432Z,15.70
2023-09-01T03:50:38.282Z,15.70
2023-09-01T03:53:05.089Z,15.80
2023-09-01T03:55:32.322Z,15.70
2023-09-01T03:58:01.167Z,15.70
2023-09-01T04:00:28.382Z,15.80
2023-09-01T04:02:56.110Z,15.70
2023-09-01T04:05:22.906Z,15.80
2023-09-01T04:07:49.685Z,15.80
2023-09-01T04:10:16.878Z,15.70
2023-09-01T04:12:43.567Z,15.80
2023-09-01T04:15:10.471Z,15.70
2023-09-01T04:17:37.383Z,15.70
2023-09-01T04:20:07.266Z,15.70
2023-09-01T04:22:34.064Z,15.80
2023-09-01T04:25:00.982Z,15.80
2023-09-01T04:27:27.712Z,15.80
2023-09-01T04:30:07.685Z,15.70
2023-09-01T04:32:36.999Z,15.80
2023-09-01T04:35:05.926Z,15.80
2023-09-01T04:37:32.613Z,15.80
2023-09-01T04:39:59.430Z,15.80
2023-09-01T04:42:26.190Z,15.80
2023-09-01T04:44:52.912Z,15.90
2023-09-01T04:47:19.562Z,15.90
2023-09-01T04:49:46.393Z,15.90
2023-09-01T04:52:13.134Z,15.80
2023-09-01T04:54:39.808Z,15.90
2023-09-01T04:57:06.593Z,15.90
2023-09-01T04:59:33.455Z,16.00
2023-09-01T05:02:00.829Z,16.00
2023-09-01T05:04:27.664Z,16.00
2023-09-01T05:06:54.529Z,16.10
2023-09-01T05:09:21.232Z,16.10
2023-09-01T05:11:47.960Z,16.10
2023-09-01T05:14:14.846Z,16.30
2023-09-01T05:16:42.194Z,16.30
2023-09-01T05:19:08.912Z,16.50
2023-09-01T05:21:35.650Z,16.70
2023-09-01T05:24:02.409Z,17.20
2023-09-01T05:26:29.069Z,17.70
2023-09-01T05:28:55.804Z,18.10
2023-09-01T05:31:22.657Z,18.20
2023-09-01T05:33:49.415Z,18.30
2023-09-01T05:36:16.226Z,18.20
2023-09-01T05:38:42.991Z,18.00
2023-09-01T05:41:11.604Z,17.70
2023-09-01T05:43:38.329Z,17.60
2023-09-01T05:46:05.053Z,17.40
2023-09-01T05:48:32.083Z,17.30
2023-09-01T05:50:58.771Z,17.20
2023-09-01T05:53:26.905Z,17.10
2023-09-01T05:55:53.924Z,17.10
2023-09-01T05:58:20.714Z,17.00
2023-09-01T06:00:47.388Z,17.00
2023-09-01T06:03:14.237Z,17.00
2023-09-01T06:05:40.967Z,17.00
2023-09-01T06:08:07.744Z,16.90
2023-09-01T06:10:34.504Z,16.90
2023-09-01T06:13:01.221Z,16.90
2023-09-01T06:15:27.943Z,16.90
2023-09-01T06:17:54.762Z,17.00
2023-09-01T06:20:21.631Z,17.00
2023-09-01T06:22:48.937Z,17.00
2023-09-01T06:25:15.921Z,17.00
2023-09-01T06:27:42.666Z,17.10
2023-09-01T06:30:09.463Z,17.10
2023-09-01T06:32:36.197Z,17.20
2023-09-01T06:35:03.269Z,17.20
2023-09-01T06:37:30.227Z,17.30
2023-09-01T06:39:57.158Z,17.30
2023-09-01T06:42:24.005Z,17.40
2023-09-01T06:44:50.802Z,17.50
2023-09-01T06:47:17.596Z,17.50
2023-09-01T06:49:44.351Z,17.40
2023-09-01T06:52:11.142Z,17.40
2023-09-01T06:54:38.797Z,17.40
2023-09-01T06:57:05.591Z,17.30
2023-09-01T06:59:32.354Z,17.20
2023-09-01T07:01:59.111Z,17.10
2023-09-01T07:04:26.332Z,17.10
2023-09-01T07:06:53.058Z,17.00
2023-09-01T07:09:19.771Z,17.00
2023-09-01T07:11:46.515Z,16.90
2023-09-01T07:14:13.232Z,16.90
2023-09-01T07:16:39.964Z,16.80
2023-09-01T07:19:06.652Z,16.80
2023-09-01T07:21:33.330Z,16.90
2023-09-01T07:24:00.039Z,17.00
2023-09-01T07:26:26.780Z,17.20
2023-09-01T07:28:53.572Z,17.30
2023-09-01T07:31:20.454Z,17.40
2023-09-01T07:33:47.272Z,17.50
2023-09-01T07:36:13.930Z,17.70
2023-09-01T07:38:41.205Z,17.90
2023-09-01T07:41:10.780Z,18.20
2023-09-01T07:43:37.659Z,18.40
2023-09-01T07:46:04.501Z,18.50
2023-09-01T07:48:31.683Z,18.70
2023-09-01T07:50:58.816Z,18.90
2023-09-01T07:53:25.791Z,18.80
2023-09-01T07:55:52.557Z,18.80
2023-09-01T07:58:20.817Z,18.90
2023-09-01T08:00:47.716Z,18.90
2023-09-01T08:03:14.717Z,18.90
2023-09-01T08:05:41.719Z,19.00
2023-09-01T08:08:08.972Z,19.10
2023-09-01T08:10:36.150Z,19.30
2023-09-01T08:13:02.949Z,19.60
2023-09-01T08:15:29.779Z,19.90
2023-09-01T08:17:56.601Z,20.30
2023-09-01T08:20:23.737Z,20.90
2023-09-01T08:22:50.726Z,21.80
2023-09-01T08:25:17.875Z,22.90
2023-09-01T08:27:45.141Z,23.50
2023-09-01T08:30:12.156Z,23.60
2023-09-01T08:32:42.432Z,23.50
2023-09-01T08:35:09.517Z,23.40
2023-09-01T08:37:36.228Z,23.10
2023-09-01T08:40:02.944Z,22.60
2023-09-01T08:42:29.874Z,22.10
2023-09-01T08:44:58.703Z,21.40
2023-09-01T08:47:26.873Z,21.30
2023-09-01T08:49:56.130Z,21.20
2023-09-01T08:52:24.829Z,21.00
2023-09-01T08:54:51.638Z,20.80
2023-09-01T08:57:18.387Z,20.50
2023-09-01T08:59:45.100Z,20.30
2023-09-01T09:02:11.982Z,20.40
2023-09-01T09:04:38.964Z,20.40
2023-09-01T09:07:23.951Z,20.60
2023-09-01T09:09:50.764Z,20.60
2023-09-01T09:12:17.552Z,20.90
2023-09-01T09:14:57.998Z,21.00
2023-09-01T09:17:38.546Z,21.20
2023-09-01T09:20:05.822Z,21.40
2023-09-01T09:22:32.892Z,21.50
2023-09-01T09:24:59.614Z,21.40
2023-09-01T09:27:26.535Z,21.50
2023-09-01T09:29:53.418Z,21.70
2023-09-01T09:32:21.095Z,22.60
2023-09-01T09:35:06.799Z,24.80
2023-09-01T09:37:34.191Z,27.60
2023-09-01T09:40:11.365Z,29.70
2023-09-01T09:42:42.199Z,29.30
2023-09-01T09:45:22.463Z,28.80
2023-09-01T09:47:50.226Z,28.00
2023-09-01T09:50:20.631Z,27.10
2023-09-01T09:52:49.743Z,26.50
2023-09-01T09:55:22.787Z,26.10
2023-09-01T09:57:50.816Z,25.90
2023-09-01T10:00:19.729Z,26.20
2023-09-01T10:02:48.975Z,26.60
2023-09-01T10:05:17.037Z,27.20
2023-09-01T10:07:43.888Z,26.90
2023-09-01T10:10:10.754Z,26.90
2023-09-01T10:12:37.734Z,28.00
2023-09-01T10:15:04.966Z,27.90
2023-09-01T10:17:35.808Z,27.60
2023-09-01T10:20:08.036Z,27.60
2023-09-01T10:22:44.141Z,27.40
2023-09-01T10:25:11.696Z,26.90
2023-09-01T10:28:01.581Z,26.40
2023-09-01T10:30:29.344Z,25.70
2023-09-01T10:33:14.890Z,25.40
2023-09-01T10:35:48.968Z,25.40
2023-09-01T10:38:19.125Z,24.60
2023-09-01T10:40:47.324Z,24.50
2023-09-01T10:43:14.640Z,24.20
2023-09-01T10:45:41.377Z,24.30
2023-09-01T10:48:13.050Z,24.60
2023-09-01T10:50:43.251Z,25.10
2023-09-01T10:53:30.241Z,25.80
2023-09-01T10:56:06.911Z,26.20
2023-09-01T10:58:40.395Z,26.10
2023-09-01T11:01:25.912Z,26.30
2023-09-01T11:03:53.169Z,26.50
2023-09-01T11:06:21.616Z,26.70
2023-09-01T11:09:01.107Z,26.70
2023-09-01T11:11:28.721Z,27.00
2023-09-01T11:13:56.312Z,27.10
2023-09-01T11:16:23.063Z,26.80
2023-09-01T11:18:59.439Z,27.00
2023-09-01T11:21:26.545Z,27.30
2023-09-01T11:24:00.616Z,27.00
2023-09-01T11:26:29.726Z,26.90
2023-09-01T11:28:57.015Z,26.70
2023-09-01T11:31:23.876Z,26.70
2023-09-01T11:33:54.561Z,26.60
2023-09-01T11:36:21.734Z,26.40
2023-09-01T11:38:48.547Z,26.30
2023-09-01T11:41:18.031Z,26.40
2023-09-01T11:43:45.361Z,26.40
2023-09-01T11:46:12.284Z,26.40
2023-09-01T11:48:39.491Z,26.40
2023-09-01T11:51:08.606Z,26.30
2023-09-01T11:53:35.597Z,26.50
2023-09-01T11:56:17.096Z,26.90
2023-09-01T11:58:43.799Z,26.80
2023-09-01T12:01:14.052Z,26.70
2023-09-01T12:03:47.361Z,26.80
2023-09-01T12:06:21.395Z,27.00
2023-09-01T12:08:48.722Z,27.20
2023-09-01T12:11:16.080Z,27.10
2023-09-01T12:13:45.459Z,27.00
2023-09-01T12:16:22.152Z,26.60
2023-09-01T12:18:49.170Z,26.50
2023-09-01T12:21:15.931Z,26.20
2023-09-01T12:23:46.333Z,26.00
2023-09-01T12:26:13.826Z,26.20
2023-09-01T12:28:41.183Z,26.60
2023-09-01T12:31:09.104Z,27.00
2023-09-01T12:33:36.440Z,27.20
2023-09-01T12:36:04.110Z,27.40
2023-09-01T12:38:30.856Z,27.40
2023-09-01T12:40:58.027Z,27.00
2023-09-01T12:43:24.964Z,26.90
2023-09-01T12:45:51.721Z,26.60
2023-09-01T12:48:18.830Z,26.70
2023-09-01T12:50:49.012Z,26.70
2023-09-01T12:53:16.688Z,26.10
2023-09-01T12:55:44.239Z,25.70
2023-09-01T12:58:11.058Z,25.40
2023-09-01T13:00:37.974Z,25.30
2023-09-01T13:03:04.853Z,25.10
2023-09-01T13:05:32.459Z,25.10
2023-09-01T13:08:00.707Z,25.20
2023-09-01T13:10:28.085Z,25.30
2023-09-01T13:12:55.049Z,25.40
2023-09-01T13:15:21.925Z,25.50
2023-09-01T13:17:48.799Z,25.40
2023-09-01T13:20:16.020Z,25.40
2023-09-01T13:22:43.213Z,25.50
2023-09-01T13:25:10.458Z,25.60
2023-09-01T13:27:37.337Z,25.30
2023-09-01T13:30:04.350Z,25.20
2023-09-01T13:32:31.140Z,25.30
2023-09-01T13:34:58.223Z,25.40
2023-09-01T13:37:25.879Z,25.60
2023-09-01T13:39:58.937Z,25.70
2023-09-01T13:42:26.784Z,25.80
2023-09-01T13:44:57.364Z,25.80
2023-09-01T13:47:24.382Z,25.90
2023-09-01T13:49:54.764Z,25.70
2023-09-01T13:52:22.142Z,25.30
2023-09-01T13:54:50.224Z,25.30
2023-09-01T13:57:17.339Z,25.40
2023-09-01T13:59:44.194Z,25.70
2023-09-01T14:02:11.083Z,25.70
2023-09-01T14:04:37.865Z,26.00
2023-09-01T14:07:04.864Z,26.00
2023-09-01T14:09:32.251Z,25.80
2023-09-01T14:11:58.983Z,25.90
2023-09-01T14:14:25.689Z,26.10
2023-09-01T14:16:52.585Z,26.10
2023-09-01T14:19:19.441Z,26.10
2023-09-01T14:21:46.248Z,26.20
2023-09-01T14:24:13.410Z,26.40
2023-09-01T14:26:41.597Z,26.40
2023-09-01T14:29:08.431Z,26.50
2023-09-01T14:31:35.143Z,26.40
2023-09-01T14:34:02.179Z,26.20
2023-09-01T14:36:28.993Z,26.30
2023-09-01T14:38:56.334Z,26.30
2023-09-01T14:41:23.671Z,26.40
2023-09-01T14:43:50.501Z,26.30
2023-09-01T14:46:20.253Z,26.10
2023-09-01T14:48:47.663Z,25.90
2023-09-01T14:51:18.136Z,25.90
2023-09-01T14:53:48.317Z,25.80
2023-09-01T14:56:15.839Z,25.60
2023-09-01T14:58:42.561Z,25.80
2023-09-01T15:01:09.344Z,25.70
2023-09-01T15:03:36.333Z,25.70
2023-09-01T15:06:03.270Z,25.90
2023-09-01T15:08:30.005Z,25.50
2023-09-01T15:11:01.808Z,25.30
2023-09-01T15:13:28.760Z,25.20
2023-09-01T15:15:55.642Z,25.20
2023-09-01T15:18:22.530Z,25.10
2023-09-01T15:20:49.194Z,25.10
2023-09-01T15:23:16.130Z,25.20
2023-09-01T15:25:43.159Z,25.20
2023-09-01T15:28:11.167Z,25.20
2023-09-01T15:30:37.985Z,25.30
2023-09-01T15:33:04.818Z,25.30
2023-09-01T15:35:34.772Z,25.40
2023-09-01T15:38:02.216Z,25.40
2023-09-01T15:40:29.029Z,25.30
2023-09-01T15:42:56.516Z,25.20
2023-09-01T15:45:24.082Z,25.20
2023-09-01T15:47:51.486Z,25.10
2023-09-01T15:50:24.900Z,25.10
2023-09-01T15:52:58.170Z,25.00
2023-09-01T15:55:24.908Z,25.00
2023-09-01T15:57:52.927Z,25.00
2023-09-01T16:00:19.812Z,24.90
2023-09-01T16:02:46.633Z,25.00
2023-09-01T16:05:14.254Z,25.00
2023-09-01T16:07:41.076Z,25.00
2023-09-01T16:10:08.046Z,24.90
2023-09-01T16:12:34.750Z,24.80
2023-09-01T16:15:01.442Z,24.80
2023-09-01T16:17:28.226Z,24.80
2023-09-01T16:19:54.981Z,24.90
2023-09-01T16:22:21.680Z,24.90
2023-09-01T16:24:48.400Z,24.70
2023-09-01T16:27:15.140Z,24.60
2023-09-01T16:29:44.711Z,24.70
2023-09-01T16:32:11.502Z,24.60
2023-09-01T16:34:38.341Z,24.50
2023-09-01T16:37:08.166Z,24.20
2023-09-01T16:39:34.861Z,24.10
2023-09-01T16:42:01.637Z,24.00
2023-09-01T16:44:29.109Z,23.90
2023-09-01T16:46:55.977Z,23.80
2023-09-01T16:49:22.725Z,23.80
2023-09-01T16:51:49.422Z,23.60
2023-09-01T16:54:16.148Z,23.50
2023-09-01T16:56:42.827Z,23.50
2023-09-01T16:59:09.586Z,23.40
2023-09-01T17:01:38.997Z,23.40
2023-09-01T17:04:06.181Z,23.30
2023-09-01T17:06:32.958Z,23.20
2023-09-01T17:08:59.738Z,23.20
2023-09-01T17:11:26.510Z,23.10
2023-09-01T17:13:54.293Z,23.00
2023-09-01T17:16:23.728Z,23.00
2023-09-01T17:18:50.508Z,22.90
2023-09-01T17:21:17.302Z,22.90
2023-09-01T17:23:44.603Z,22.80
2023-09-01T17:26:11.379Z,22.70
2023-09-01T17:28:38.410Z,22.60
2023-09-01T17:31:05.695Z,22.50
2023-09-01T17:33:32.694Z,22.30
2023-09-01T17:35:59.792Z,22.30
2023-09-01T17:38:26.603Z,22.10
2023-09-01T17:40:54.217Z,22.10
2023-09-01T17:43:21.892Z,21.90
2023-09-01T17:45:49.518Z,21.80
2023-09-01T17:48:16.357Z,21.70
2023-09-01T17:50:43.208Z,21.60
2023-09-01T17:53:10.043Z,21.40
2023-09-01T17:55:36.934Z,21.20
2023-09-01T17:58:10.165Z,21.10
2023-09-01T18:00:37.175Z,21.00
2023-09-01T18:03:04.346Z,20.70
2023-09-01T18:05:31.752Z,20.50
2023-09-01T18:07:58.522Z,20.30
2023-09-01T18:10:25.417Z,20.10
2023-09-01T18:12:52.249Z,19.90
2023-09-01T18:15:19.118Z,19.70
2023-09-01T18:17:45.957Z,19.60
2023-09-01T18:20:14.259Z,19.40
2023-09-01T18:22:42.534Z,19.30
2023-09-01T18:25:11.846Z,19.20
2023-09-01T18:27:38.637Z,19.10
2023-09-01T18:30:06.894Z,18.90
2023-09-01T18:32:33.776Z,18.80
2023-09-01T18:35:02.037Z,18.70
2023-09-01T18:37:29.477Z,18.60
2023-09-01T18:39:56.314Z,18.50
2023-09-01T18:42:31.357Z,18.40
2023-09-01T18:45:00.848Z,18.30
2023-09-01T18:47:28.910Z,18.20
2023-09-01T18:49:55.904Z,18.20
2023-09-01T18:52:22.705Z,18.00
2023-09-01T18:54:49.460Z,17.90
2023-09-01T18:57:16.626Z,17.90
2023-09-01T18:59:45.084Z,17.80
2023-09-01T19:02:32.275Z,17.80
2023-09-01T19:05:01.200Z,17.70
2023-09-01T19:07:29.538Z,17.60
2023-09-01T19:09:56.511Z,17.60
2023-09-01T19:12:23.686Z,17.50
2023-09-01T19:14:50.778Z,17.40
2023-09-01T19:17:19.404Z,17.40
2023-09-01T19:19:46.228Z,17.30
2023-09-01T19:22:13.304Z,17.30
2023-09-01T19:24:40.035Z,17.30
2023-09-01T19:27:08.559Z,17.20
2023-09-01T19:29:35.424Z,17.20
2023-09-01T19:32:02.316Z,17.10
2023-09-01T19:34:31.035Z,17.10
2023-09-01T19:36:58.051Z,17.00
2023-09-01T19:39:25.937Z,17.00
2023-09-01T19:41:53.497Z,16.90
2023-09-01T19:44:20.440Z,16.80
2023-09-01T19:46:47.321Z,16.80
2023-09-01T19:49:14.669Z,16.80
2023-09-01T19:51:44.384Z,16.70
2023-09-01T19:54:14.614Z,16.60
2023-09-01T19:56:41.489Z,16.60
2023-09-01T19:59:09.424Z,16.50
2023-09-01T20:01:38.369Z,16.40
2023-09-01T20:04:06.853Z,16.40
2023-09-01T20:06:34.261Z,16.40
2023-09-01T20:09:07.741Z,16.40
2023-09-01T20:11:34.484Z,16.40
2023-09-01T20:14:01.477Z,16.40
2023-09-01T20:16:31.685Z,16.40
2023-09-01T20:19:09.459Z,16.40
2023-09-01T20:21:36.598Z,16.30
2023-09-01T20:24:05.014Z,16.30
2023-09-01T20:26:33.595Z,16.30
2023-09-01T20:29:00.374Z,16.20
2023-09-01T20:31:27.248Z,16.20
2023-09-01T20:33:53.930Z,16.10
2023-09-01T20:36:22.889Z,16.10
2023-09-01T20:38:50.109Z,16.00
2023-09-01T20:41:16.841Z,16.00
2023-09-01T20:43:43.569Z,16.00
2023-09-01T20:46:10.323Z,15.90
2023-09-01T20:48:38.769Z,15.90
2023-09-01T20:51:05.972Z,15.80
2023-09-01T20:53:32.715Z,15.80
2023-09-01T20:56:03.697Z,15.70
2023-09-01T20:58:31.024Z,15.70
2023-09-01T21:00:58.274Z,15.70
2023-09-01T21:03:25.066Z,15.70
2023-09-01T21:05:51.949Z,15.60
2023-09-01T21:08:18.791Z,15.60
2023-09-01T21:10:45.531Z,15.50
2023-09-01T21:13:12.401Z,15.50
2023-09-01T21:15:39.263Z,15.50
2023-09-01T21:18:06.151Z,15.50
2023-09-01T21:20:32.909Z,15.40
2023-09-01T21:22:59.674Z,15.50
2023-09-01T21:25:26.457Z,15.40
2023-09-01T21:27:53.217Z,15.40
2023-09-01T21:30:20.225Z,15.30
2023-09-01T21:32:47.280Z,15.30
2023-09-01T21:35:14.162Z,15.20
2023-09-01T21:37:41.261Z,15.20
2023-09-01T21:40:09.087Z,15.20
2023-09-01T21:42:36.689Z,15.20
2023-09-01T21:45:05.167Z,15.10
2023-09-01T21:47:33.129Z,15.10
2023-09-01T21:49:59.880Z,15.10
2023-09-01T21:52:26.604Z,15.10
2023-09-01T21:54:53.354Z,15.00
2023-09-01T21:57:20.073Z,15.00
2023-09-01T21:59:46.884Z,14.90
2023-09-01T22:02:13.661Z,14.90
2023-09-01T22:04:41.384Z,14.90
2023-09-01T22:07:08.699Z,14.90
2023-09-01T22:09:35.695Z,14.80
2023-09-01T22:12:02.555Z,14.80
2023-09-01T22:14:29.371Z,14.80
2023-09-01T22:16:56.202Z,14.80
2023-09-01T22:19:22.898Z,14.80
2023-09-01T22:21:49.611Z,14.80
2023-09-01T22:24:16.369Z,14.80
2023-09-01T22:26:43.169Z,14.80
2023-09-01T22:29:09.886Z,14.70
2023-09-01T22:31:37.395Z,14.70
2023-09-01T22:34:04.183Z,14.70
2023-09-01T22:36:30.940Z,14.60
2023-09-01T22:38:57.676Z,14.60
2023-09-01T22:41:24.985Z,14.60
2023-09-01T22:43:53.265Z,14.60
2023-09-01T22:46:20.246Z,14.60
2023-09-01T22:48:46.950Z,14.60
2023-09-01T22:51:13.895Z,14.60
2023-09-01T22:53:40.615Z,14.60
2023-09-01T22:56:07.343Z,14.60
2023-09-01T22:58:34.427Z,14.50
2023-09-01T23:01:04.624Z,14.50
2023-09-01T23:03:31.997Z,14.50
2023-09-01T23:05:58.864Z,14.50
2023-09-01T23:08:25.737Z,14.50
2023-09-01T23:10:52.456Z,14.50
2023-09-01T23:13:19.643Z,14.50
2023-09-01T23:15:46.522Z,14.50
2023-09-01T23:18:13.205Z,14.40
2023-09-01T23:20:39.982Z,14.40
2023-09-01T23:23:06.723Z,14.40
2023-09-01T23:25:34.714Z,14.30
2023-09-01T23:28:01.521Z,14.30
2023-09-01T23:30:28.289Z,14.20
2023-09-01T23:32:55.031Z,14.20
2023-09-01T23:35:21.919Z,14.20
2023-09-01T23:37:48.675Z,14.20
2023-09-01T23:40:15.755Z,14.20
2023-09-01T23:42:42.496Z,14.20
2023-09-01T23:45:09.430Z,14.10
2023-09-01T23:47:42.066Z,14.10
2023-09-01T23:50:10.322Z,14.10
2023-09-01T23:52:39.301Z,14.10
2023-09-01T23:55:06.070Z,14.10
2023-09-01T23:57:32.802Z,14.00
2023-09-01T23:59:59.564Z,14.00
